createdAt,value
2017-10-16T00:00:47.582Z,25.47
2017-10-16T00:03:15.122Z,24.50
2017-10-16T00:05:42.670Z,25.20
2017-10-16T00:08:10.638Z,19.53
2017-10-16T00:10:38.181Z,28.13
2017-10-16T00:13:05.729Z,22.03
2017-10-16T00:15:33.646Z,18.37
2017-10-16T00:18:01.203Z,22.27
2017-10-16T00:20:28.748Z,23.50
2017-10-16T00:22:56.540Z,17.63
2017-10-16T00:25:24.086Z,19.13
2017-10-16T00:27:51.639Z,17.83
2017-10-16T00:30:19.621Z,24.23
2017-10-16T00:32:47.167Z,25.90
2017-10-16T00:35:14.706Z,26.17
2017-10-16T00:37:42.294Z,20.57
2017-10-16T00:40:09.843Z,20.90
2017-10-16T00:42:37.389Z,24.53
2017-10-16T00:45:04.982Z,21.27
2017-10-16T00:47:32.532Z,26.60
2017-10-16T00:50:00.069Z,20.50
2017-10-16T00:52:27.966Z,22.13
2017-10-16T00:54:55.505Z,25.87
2017-10-16T00:57:23.056Z,29.53
2017-10-16T00:59:50.945Z,25.87
2017-10-16T01:02:18.496Z,20.43
2017-10-16T01:04:46.052Z,17.10
2017-10-16T01:07:13.934Z,18.57
2017-10-16T01:09:41.483Z,19.53
2017-10-16T01:12:09.017Z,15.30
2017-10-16T01:14:36.602Z,18.80
2017-10-16T01:17:04.142Z,18.70
2017-10-16T01:19:31.726Z,16.50
2017-10-16T01:21:59.692Z,16.00
2017-10-16T01:24:27.246Z,18.93
2017-10-16T01:26:54.790Z,18.60
2017-10-16T01:29:22.381Z,20.70
2017-10-16T01:31:49.901Z,16.50
2017-10-16T01:34:17.445Z,22.10
2017-10-16T01:36:46.076Z,19.93
2017-10-16T01:39:13.622Z,18.70
2017-10-16T01:41:41.194Z,27.40
2017-10-16T01:44:09.050Z,22.13
2017-10-16T01:46:36.672Z,19.57
2017-10-16T01:49:04.201Z,20.67
2017-10-16T01:51:32.252Z,16.63
2017-10-16T01:53:59.795Z,14.33
2017-10-16T01:56:27.413Z,22.50
2017-10-16T01:58:56.073Z,17.07
2017-10-16T02:01:23.597Z,16.70
2017-10-16T02:03:51.135Z,27.93
2017-10-16T02:06:19.489Z,24.77
2017-10-16T02:08:47.808Z,17.77
2017-10-16T02:11:15.348Z,18.00
2017-10-16T02:13:42.938Z,18.60
2017-10-16T02:16:10.486Z,22.60
2017-10-16T02:18:38.035Z,17.33
2017-10-16T02:21:05.884Z,21.90
2017-10-16T02:23:34.197Z,19.90
2017-10-16T02:26:01.796Z,21.00
2017-10-16T02:28:29.881Z,20.80
2017-10-16T02:30:58.187Z,18.03
2017-10-16T02:33:25.725Z,21.33
2017-10-16T02:35:53.819Z,20.10
2017-10-16T02:38:21.380Z,23.17
2017-10-16T02:40:48.930Z,21.27
2017-10-16T02:43:16.665Z,16.20
2017-10-16T02:45:44.978Z,17.40
2017-10-16T02:48:12.515Z,22.40
2017-10-16T02:50:40.639Z,21.57
2017-10-16T02:53:08.190Z,21.53
2017-10-16T02:55:35.742Z,17.43
2017-10-16T02:58:03.821Z,19.40
2017-10-16T03:00:31.413Z,22.90
2017-10-16T03:02:58.961Z,20.33
2017-10-16T03:05:26.566Z,22.50
2017-10-16T03:07:54.143Z,22.87
2017-10-16T03:10:21.699Z,24.83
2017-10-16T03:12:49.573Z,19.63
2017-10-16T03:15:17.193Z,18.77
2017-10-16T03:17:44.728Z,19.60
2017-10-16T03:20:12.560Z,28.57
2017-10-16T03:22:40.937Z,30.33
2017-10-16T03:25:08.488Z,26.50
2017-10-16T03:27:36.079Z,23.57
2017-10-16T03:30:03.735Z,42.43
2017-10-16T03:32:31.257Z,24.90
2017-10-16T03:34:58.834Z,25.63
2017-10-16T03:37:26.374Z,32.57
2017-10-16T03:39:53.951Z,22.17
2017-10-16T03:42:21.821Z,21.33
2017-10-16T03:44:49.354Z,21.17
2017-10-16T03:47:16.897Z,23.70
2017-10-16T03:49:45.383Z,16.37
2017-10-16T03:52:13.685Z,13.43
2017-10-16T03:54:41.243Z,18.30
2017-10-16T03:57:08.829Z,22.13
2017-10-16T03:59:36.413Z,20.90
2017-10-16T04:02:03.967Z,24.90
2017-10-16T04:04:31.569Z,31.87
2017-10-16T04:06:59.883Z,31.63
2017-10-16T04:09:27.418Z,24.30
2017-10-16T04:11:55.010Z,28.73
2017-10-16T04:14:22.714Z,24.73
2017-10-16T04:16:50.414Z,22.10
2017-10-16T04:19:18.274Z,25.80
2017-10-16T04:21:45.813Z,24.90
2017-10-16T04:24:14.225Z,24.90
2017-10-16T04:26:41.809Z,34.23
2017-10-16T04:29:09.350Z,23.83
2017-10-16T04:31:36.895Z,19.03
2017-10-16T04:34:04.645Z,19.00
2017-10-16T04:36:32.185Z,25.70
2017-10-16T04:39:00.511Z,34.57
2017-10-16T04:41:28.101Z,20.40
2017-10-16T04:43:55.674Z,24.73
2017-10-16T04:46:23.238Z,23.23
2017-10-16T04:48:51.609Z,28.90
2017-10-16T04:51:19.152Z,30.87
2017-10-16T04:53:46.710Z,21.43
2017-10-16T04:56:15.821Z,19.00
2017-10-16T04:58:43.358Z,19.70
2017-10-16T05:01:10.910Z,22.93
2017-10-16T05:03:38.501Z,23.90
2017-10-16T05:06:06.057Z,25.43
2017-10-16T05:08:33.597Z,21.83
2017-10-16T05:11:01.654Z,22.97
2017-10-16T05:13:29.207Z,20.73
2017-10-16T05:15:56.737Z,19.10
2017-10-16T05:18:24.327Z,21.37
2017-10-16T05:20:51.902Z,19.53
2017-10-16T05:23:19.943Z,16.70
2017-10-16T05:25:47.521Z,20.83
2017-10-16T05:28:15.127Z,19.87
2017-10-16T05:30:43.670Z,17.53
2017-10-16T05:33:11.474Z,18.53
2017-10-16T05:35:39.801Z,16.93
2017-10-16T05:38:07.351Z,22.17
2017-10-16T05:40:35.031Z,17.97
2017-10-16T05:43:02.578Z,21.73
2017-10-16T05:45:30.113Z,25.20
2017-10-16T05:47:58.010Z,19.73
2017-10-16T05:50:25.586Z,27.87
2017-10-16T05:52:53.121Z,29.93
2017-10-16T05:55:20.708Z,30.93
2017-10-16T05:57:48.250Z,35.57
2017-10-16T06:00:15.872Z,32.47
2017-10-16T06:02:43.418Z,21.97
2017-10-16T06:05:12.084Z,22.27
2017-10-16T06:07:40.447Z,24.43
2017-10-16T06:10:08.077Z,26.00
2017-10-16T06:12:36.174Z,32.63
2017-10-16T06:15:03.717Z,37.17
2017-10-16T06:17:31.270Z,37.53
2017-10-16T06:19:58.866Z,36.97
2017-10-16T06:22:26.725Z,37.07
2017-10-16T06:24:54.558Z,27.73
2017-10-16T06:27:22.117Z,23.73
2017-10-16T06:29:49.668Z,23.60
2017-10-16T06:32:17.247Z,23.47
2017-10-16T06:34:44.790Z,24.80
2017-10-16T06:37:12.528Z,32.40
2017-10-16T06:39:40.873Z,27.00
2017-10-16T06:42:08.433Z,29.50
2017-10-16T06:44:36.059Z,31.20
2017-10-16T06:47:03.618Z,59.47
2017-10-16T06:49:31.164Z,50.73
2017-10-16T06:51:58.758Z,47.60
2017-10-16T06:54:26.301Z,61.37
2017-10-16T06:56:53.956Z,51.20
2017-10-16T06:59:21.550Z,53.70
2017-10-16T07:01:49.093Z,43.37
2017-10-16T07:04:16.646Z,46.00
2017-10-16T07:06:44.277Z,37.70
2017-10-16T07:09:11.810Z,28.83
2017-10-16T07:11:39.722Z,34.23
2017-10-16T07:14:07.337Z,34.40
2017-10-16T07:16:35.049Z,38.60
2017-10-16T07:19:02.689Z,36.30
2017-10-16T07:21:30.290Z,32.30
2017-10-16T07:23:57.864Z,30.27
2017-10-16T07:26:25.402Z,28.47
2017-10-16T07:28:53.000Z,33.60
2017-10-16T07:31:20.550Z,35.70
2017-10-16T07:33:48.114Z,26.20
2017-10-16T07:36:15.725Z,30.10
2017-10-16T07:38:43.269Z,29.70
2017-10-16T07:41:10.809Z,31.87
2017-10-16T07:43:38.412Z,30.83
2017-10-16T07:46:05.966Z,28.00
2017-10-16T07:48:33.513Z,29.73
2017-10-16T07:51:01.111Z,41.33
2017-10-16T07:53:28.669Z,34.23
2017-10-16T07:55:56.210Z,45.10
2017-10-16T07:58:23.782Z,31.37
2017-10-16T08:00:51.727Z,35.67
2017-10-16T08:03:19.330Z,33.03
2017-10-16T08:05:46.925Z,33.53
2017-10-16T08:08:15.450Z,35.83
2017-10-16T08:10:42.993Z,34.20
2017-10-16T08:13:10.588Z,56.47
2017-10-16T08:15:38.138Z,32.70
2017-10-16T08:18:05.734Z,37.03
2017-10-16T08:20:33.281Z,30.40
2017-10-16T08:23:00.832Z,41.40
2017-10-16T08:25:28.550Z,36.20
2017-10-16T08:27:56.092Z,35.70
2017-10-16T08:30:24.305Z,40.03
2017-10-16T08:32:51.853Z,44.27
2017-10-16T08:35:19.427Z,39.47
2017-10-16T08:37:47.270Z,36.17
2017-10-16T08:40:14.842Z,31.23
2017-10-16T08:42:42.446Z,37.57
2017-10-16T08:45:10.941Z,38.10
2017-10-16T08:47:39.247Z,43.40
2017-10-16T08:50:06.990Z,49.53
2017-10-16T08:52:34.536Z,45.60
2017-10-16T08:55:03.171Z,52.67
2017-10-16T08:57:30.712Z,34.37
2017-10-16T08:59:58.262Z,39.20
2017-10-16T09:02:25.982Z,34.60
2017-10-16T09:04:53.517Z,24.60
2017-10-16T09:07:21.194Z,24.97
2017-10-16T09:09:48.698Z,19.80
2017-10-16T09:12:16.232Z,13.60
2017-10-16T09:14:44.595Z,11.57
2017-10-16T09:17:12.395Z,11.57
2017-10-16T09:19:40.737Z,13.47
2017-10-16T09:22:08.269Z,12.90
2017-10-16T09:24:35.830Z,12.60
2017-10-16T09:27:03.418Z,12.17
2017-10-16T09:29:30.959Z,14.33
2017-10-16T09:31:59.099Z,15.43
2017-10-16T09:34:26.638Z,12.40
2017-10-16T09:36:54.949Z,9.33
2017-10-16T09:39:22.534Z,12.63
2017-10-16T09:41:50.066Z,13.33
2017-10-16T09:44:18.650Z,15.57
2017-10-16T09:46:46.222Z,15.00
2017-10-16T09:49:13.781Z,20.07
2017-10-16T09:51:41.362Z,24.33
2017-10-16T09:54:08.907Z,14.33
2017-10-16T09:56:36.491Z,20.63
2017-10-16T09:59:04.045Z,28.30
2017-10-16T10:01:31.597Z,18.27
2017-10-16T10:03:59.167Z,26.53
2017-10-16T10:06:26.721Z,16.53
2017-10-16T10:08:54.336Z,17.63
2017-10-16T10:11:21.877Z,19.53
2017-10-16T10:13:49.594Z,21.30
2017-10-16T10:16:17.174Z,18.47
2017-10-16T10:18:44.799Z,18.97
2017-10-16T10:21:12.454Z,17.20
2017-10-16T10:23:41.698Z,15.23
2017-10-16T10:26:10.053Z,15.00
2017-10-16T10:28:37.678Z,19.43
2017-10-16T10:31:05.234Z,13.03
2017-10-16T10:33:32.846Z,18.87
2017-10-16T10:36:01.911Z,18.17
2017-10-16T10:38:29.450Z,14.47
2017-10-16T10:40:57.033Z,24.03
2017-10-16T10:43:24.799Z,15.77
2017-10-16T10:45:52.415Z,13.57
2017-10-16T10:48:19.996Z,14.53
2017-10-16T10:50:47.693Z,14.97
2017-10-16T10:53:15.324Z,16.50
2017-10-16T10:55:42.877Z,18.70
2017-10-16T10:58:10.505Z,13.10
2017-10-16T11:00:38.043Z,13.77
2017-10-16T11:03:05.589Z,15.07
2017-10-16T11:05:33.210Z,18.90
2017-10-16T11:08:00.787Z,19.43
2017-10-16T11:10:28.673Z,15.20
2017-10-16T11:12:56.271Z,15.37
2017-10-16T11:15:23.818Z,17.77
2017-10-16T11:17:52.153Z,18.53
2017-10-16T11:20:19.716Z,19.23
2017-10-16T11:22:47.596Z,14.00
2017-10-16T11:25:15.379Z,13.23
2017-10-16T11:27:42.923Z,15.83
2017-10-16T11:30:10.514Z,14.77
2017-10-16T11:32:38.068Z,20.00
2017-10-16T11:35:06.431Z,22.00
2017-10-16T11:37:33.975Z,15.47
2017-10-16T11:40:01.539Z,13.43
2017-10-16T11:42:29.358Z,17.37
2017-10-16T11:44:56.905Z,16.63
2017-10-16T11:47:24.492Z,13.27
2017-10-16T11:49:52.321Z,17.33
2017-10-16T11:52:20.625Z,16.40
2017-10-16T11:54:48.262Z,17.50
2017-10-16T11:57:16.566Z,20.43
2017-10-16T11:59:44.149Z,16.13
2017-10-16T12:02:11.692Z,14.50
2017-10-16T12:04:39.254Z,14.47
2017-10-16T12:07:06.846Z,12.17
2017-10-16T12:09:34.382Z,13.90
2017-10-16T12:12:01.976Z,18.80
2017-10-16T12:14:29.533Z,12.33
2017-10-16T12:16:57.086Z,13.43
2017-10-16T12:19:24.665Z,20.03
2017-10-16T12:21:52.979Z,20.83
2017-10-16T12:24:20.590Z,25.83
2017-10-16T12:26:48.238Z,14.47
2017-10-16T12:29:15.794Z,15.07
2017-10-16T12:31:43.489Z,17.37
2017-10-16T12:34:11.047Z,16.00
2017-10-16T12:36:39.427Z,15.27
2017-10-16T12:39:06.979Z,14.97
2017-10-16T12:41:35.419Z,18.53
2017-10-16T12:44:03.023Z,16.30
2017-10-16T12:46:30.612Z,14.17
2017-10-16T12:48:58.215Z,13.80
2017-10-16T12:51:25.750Z,12.30
2017-10-16T12:53:53.300Z,13.20
2017-10-16T12:56:20.880Z,12.63
2017-10-16T12:58:48.426Z,13.57
2017-10-16T13:01:16.011Z,15.83
2017-10-16T13:03:43.566Z,15.47
2017-10-16T13:06:11.114Z,14.63
2017-10-16T13:08:38.706Z,15.30
2017-10-16T13:11:06.337Z,18.00
2017-10-16T13:13:33.929Z,16.60
2017-10-16T13:16:01.466Z,15.10
2017-10-16T13:18:29.007Z,13.00
2017-10-16T13:20:56.626Z,13.93
2017-10-16T13:23:24.949Z,13.40
2017-10-16T13:25:52.503Z,16.40
2017-10-16T13:28:20.102Z,13.27
2017-10-16T13:30:47.646Z,12.97
2017-10-16T13:33:15.205Z,12.50
2017-10-16T13:35:42.805Z,13.53
2017-10-16T13:38:11.109Z,14.63
2017-10-16T13:40:38.703Z,13.30
2017-10-16T13:43:06.242Z,24.20
2017-10-16T13:45:33.777Z,12.27
2017-10-16T13:48:01.558Z,17.23
2017-10-16T13:50:29.110Z,14.30
2017-10-16T13:52:56.689Z,15.40
2017-10-16T13:55:24.234Z,10.70
2017-10-16T13:57:51.818Z,17.33
2017-10-16T14:00:19.350Z,15.27
2017-10-16T14:02:46.887Z,25.20
2017-10-16T14:05:15.398Z,24.67
2017-10-16T14:07:42.951Z,18.40
2017-10-16T14:10:10.537Z,21.53
2017-10-16T14:12:38.098Z,16.73
2017-10-16T14:15:05.638Z,18.10
2017-10-16T14:17:33.214Z,12.17
2017-10-16T14:20:00.765Z,15.97
2017-10-16T14:22:29.952Z,12.47
2017-10-16T14:24:58.638Z,11.80
2017-10-16T14:27:26.914Z,15.20
2017-10-16T14:29:55.315Z,18.40
2017-10-16T14:32:22.870Z,13.90
2017-10-16T14:34:50.477Z,12.60
2017-10-16T14:37:18.042Z,10.87
2017-10-16T14:39:46.349Z,9.50
2017-10-16T14:42:13.922Z,13.03
2017-10-16T14:44:41.474Z,16.17
2017-10-16T14:47:09.475Z,12.00
2017-10-16T14:49:37.021Z,18.27
2017-10-16T14:52:04.556Z,13.13
2017-10-16T14:54:32.188Z,20.13
2017-10-16T14:56:59.730Z,13.33
2017-10-16T14:59:27.309Z,22.27
2017-10-16T15:01:54.850Z,18.53
2017-10-16T15:04:23.153Z,18.77
2017-10-16T15:06:50.757Z,10.37
2017-10-16T15:09:18.430Z,11.73
2017-10-16T15:11:46.014Z,16.43
2017-10-16T15:14:13.569Z,13.17
2017-10-16T15:16:41.918Z,13.83
2017-10-16T15:19:09.518Z,14.90
2017-10-16T15:21:37.911Z,12.23
2017-10-16T15:24:05.552Z,17.30
2017-10-16T15:26:33.107Z,20.97
2017-10-16T15:29:01.413Z,19.63
2017-10-16T15:31:29.034Z,13.10
2017-10-16T15:33:57.356Z,13.50
2017-10-16T15:36:24.941Z,17.50
2017-10-16T15:38:52.483Z,14.17
2017-10-16T15:41:20.149Z,15.40
2017-10-16T15:43:47.743Z,14.43
2017-10-16T15:46:15.313Z,15.40
2017-10-16T15:48:42.899Z,13.07
2017-10-16T15:51:11.220Z,10.17
2017-10-16T15:53:38.778Z,18.80
2017-10-16T15:56:06.368Z,17.30
2017-10-16T15:58:33.913Z,16.60
2017-10-16T16:01:01.541Z,15.90
2017-10-16T16:03:29.207Z,14.17
2017-10-16T16:05:56.755Z,16.40
2017-10-16T16:08:24.335Z,18.97
2017-10-16T16:10:51.889Z,14.60
2017-10-16T16:13:19.490Z,12.43
2017-10-16T16:15:47.035Z,12.83
2017-10-16T16:18:14.588Z,18.47
2017-10-16T16:20:42.318Z,19.90
2017-10-16T16:23:09.895Z,16.50
2017-10-16T16:25:37.492Z,17.50
2017-10-16T16:28:05.064Z,14.00
2017-10-16T16:30:33.374Z,16.00
2017-10-16T16:33:01.127Z,21.37
2017-10-16T16:35:28.806Z,17.67
2017-10-16T16:37:56.594Z,16.03
2017-10-16T16:40:24.210Z,19.87
2017-10-16T16:42:52.513Z,19.97
2017-10-16T16:45:20.161Z,17.50
2017-10-16T16:47:47.733Z,24.53
2017-10-16T16:50:15.324Z,22.33
2017-10-16T16:52:42.887Z,15.30
2017-10-16T16:55:10.582Z,26.73
2017-10-16T16:57:38.184Z,18.23
2017-10-16T17:00:05.756Z,23.60
2017-10-16T17:02:33.404Z,18.03
2017-10-16T17:05:00.954Z,19.63
2017-10-16T17:07:28.511Z,20.67
2017-10-16T17:09:56.122Z,22.60
2017-10-16T17:12:23.883Z,28.03
2017-10-16T17:14:51.485Z,19.90
2017-10-16T17:17:19.032Z,21.67
2017-10-16T17:19:46.579Z,41.23
2017-10-16T17:22:14.973Z,14.93
2017-10-16T17:24:42.581Z,32.80
2017-10-16T17:27:10.206Z,21.07
2017-10-16T17:29:38.236Z,20.30
2017-10-16T17:32:06.578Z,27.20
2017-10-16T17:34:34.158Z,21.97
2017-10-16T17:37:01.753Z,23.20
2017-10-16T17:39:30.086Z,20.60
2017-10-16T17:41:57.649Z,23.67
2017-10-16T17:44:25.262Z,26.30
2017-10-16T17:46:52.950Z,23.03
2017-10-16T17:49:20.518Z,19.50
2017-10-16T17:51:48.121Z,18.00
2017-10-16T17:54:15.832Z,23.50
2017-10-16T17:56:43.375Z,25.47
2017-10-16T17:59:11.182Z,25.40
2017-10-16T18:01:38.962Z,19.40
2017-10-16T18:04:06.663Z,25.37
2017-10-16T18:06:34.269Z,32.67
2017-10-16T18:09:01.835Z,27.67
2017-10-16T18:11:29.394Z,22.30
2017-10-16T18:13:56.999Z,19.13
2017-10-16T18:16:24.550Z,23.83
2017-10-16T18:18:52.467Z,25.60
2017-10-16T18:21:20.021Z,25.77
2017-10-16T18:23:47.620Z,27.60
2017-10-16T18:26:15.211Z,29.07
2017-10-16T18:28:42.753Z,26.50
2017-10-16T18:31:10.682Z,35.47
2017-10-16T18:33:38.295Z,24.30
2017-10-16T18:36:06.667Z,23.43
2017-10-16T18:38:35.254Z,25.43
2017-10-16T18:41:06.145Z,26.90
2017-10-16T18:43:34.607Z,23.13
2017-10-16T18:46:02.200Z,26.80
2017-10-16T18:48:29.948Z,27.97
2017-10-16T18:50:57.545Z,34.73
2017-10-16T18:53:25.098Z,31.17
2017-10-16T18:55:52.669Z,46.10
2017-10-16T18:58:20.242Z,34.53
2017-10-16T19:00:47.852Z,27.20
2017-10-16T19:03:16.242Z,26.77
2017-10-16T19:05:43.820Z,26.90
2017-10-16T19:08:11.439Z,24.73
2017-10-16T19:10:39.786Z,36.20
2017-10-16T19:13:07.393Z,59.83
2017-10-16T19:15:36.006Z,83.87
2017-10-16T19:18:03.661Z,36.70
2017-10-16T19:20:31.276Z,32.70
2017-10-16T19:22:58.950Z,34.80
2017-10-16T19:25:26.511Z,32.93
2017-10-16T19:27:54.113Z,31.93
2017-10-16T19:30:22.043Z,35.27
2017-10-16T19:32:51.454Z,33.23
2017-10-16T19:35:19.581Z,33.33
2017-10-16T19:37:48.467Z,31.10
2017-10-16T19:40:18.903Z,34.73
2017-10-16T19:42:46.622Z,29.57
2017-10-16T19:45:15.584Z,30.10
2017-10-16T19:47:43.162Z,26.17
2017-10-16T19:50:10.725Z,37.50
2017-10-16T19:52:39.095Z,24.83
2017-10-16T19:55:06.655Z,41.87
2017-10-16T19:57:35.041Z,29.43
2017-10-16T20:00:02.646Z,34.93
2017-10-16T20:02:30.347Z,28.47
2017-10-16T20:04:57.958Z,26.70
2017-10-16T20:07:25.486Z,37.43
2017-10-16T20:09:53.657Z,33.23
2017-10-16T20:12:22.071Z,29.70
2017-10-16T20:14:49.715Z,29.63
2017-10-16T20:17:17.627Z,27.07
2017-10-16T20:19:45.349Z,29.60
2017-10-16T20:22:12.978Z,26.40
2017-10-16T20:24:41.293Z,33.80
2017-10-16T20:27:08.850Z,34.23
2017-10-16T20:29:38.452Z,33.93
2017-10-16T20:32:07.795Z,27.53
2017-10-16T20:34:36.587Z,27.50
2017-10-16T20:37:04.759Z,36.23
2017-10-16T20:39:33.701Z,22.60
2017-10-16T20:42:01.929Z,27.17
2017-10-16T20:44:34.129Z,24.40
2017-10-16T20:47:02.455Z,31.40
2017-10-16T20:49:30.013Z,31.13
2017-10-16T20:51:57.557Z,33.27
2017-10-16T20:54:25.194Z,38.40
2017-10-16T20:56:52.769Z,25.60
2017-10-16T20:59:21.110Z,28.13
2017-10-16T21:01:49.510Z,31.30
2017-10-16T21:04:17.179Z,27.80
2017-10-16T21:06:45.532Z,32.60
2017-10-16T21:09:13.939Z,28.33
2017-10-16T21:11:42.830Z,32.03
2017-10-16T21:14:10.385Z,30.67
2017-10-16T21:16:37.990Z,32.50
2017-10-16T21:19:05.594Z,25.07
2017-10-16T21:21:33.994Z,86.83
2017-10-16T21:24:01.566Z,26.93
2017-10-16T21:26:30.038Z,38.53
2017-10-16T21:28:58.617Z,30.50
2017-10-16T21:31:27.050Z,30.67
2017-10-16T21:33:54.957Z,25.43
2017-10-16T21:36:22.595Z,25.40
2017-10-16T21:38:50.145Z,28.33
2017-10-16T21:41:18.043Z,38.47
2017-10-16T21:43:45.714Z,29.57
2017-10-16T21:46:14.209Z,30.63
2017-10-16T21:48:41.770Z,32.10
2017-10-16T21:51:09.908Z,28.73
2017-10-16T21:53:38.255Z,33.23
2017-10-16T21:56:05.824Z,35.37
2017-10-16T21:58:33.422Z,35.97
2017-10-16T22:01:00.973Z,24.77
2017-10-16T22:03:29.289Z,25.20
2017-10-16T22:05:56.895Z,34.77
2017-10-16T22:08:24.437Z,45.27
2017-10-16T22:10:52.408Z,34.57
2017-10-16T22:13:20.762Z,24.87
2017-10-16T22:15:48.658Z,27.50
2017-10-16T22:18:16.246Z,32.47
2017-10-16T22:20:43.805Z,35.53
2017-10-16T22:23:11.393Z,34.70
2017-10-16T22:25:38.941Z,29.57
2017-10-16T22:28:06.544Z,35.50
2017-10-16T22:30:34.113Z,33.87
2017-10-16T22:33:01.656Z,35.83
2017-10-16T22:35:29.294Z,36.77
2017-10-16T22:37:56.842Z,29.50
2017-10-16T22:40:24.437Z,38.80
2017-10-16T22:42:51.987Z,32.17
2017-10-16T22:45:19.611Z,35.60
2017-10-16T22:47:47.198Z,29.50
2017-10-16T22:50:14.742Z,35.10
2017-10-16T22:52:42.633Z,27.20
2017-10-16T22:55:13.738Z,30.23
2017-10-16T22:57:45.225Z,30.57
2017-10-16T23:03:15.842Z,27.70
2017-10-16T23:05:43.411Z,36.87
2017-10-16T23:08:12.232Z,37.63
2017-10-16T23:10:41.352Z,34.30
2017-10-16T23:13:08.896Z,29.87
2017-10-16T23:15:36.521Z,27.03
2017-10-16T23:18:04.348Z,32.07
2017-10-16T23:20:35.215Z,24.90
2017-10-16T23:23:02.813Z,31.43
2017-10-16T23:25:30.345Z,45.27
2017-10-16T23:27:57.974Z,36.10
2017-10-16T23:30:26.284Z,27.40
2017-10-16T23:32:53.830Z,28.67
2017-10-16T23:35:21.418Z,30.23
2017-10-16T23:37:48.986Z,30.23
2017-10-16T23:40:16.579Z,27.37
2017-10-16T23:42:44.120Z,28.93
2017-10-16T23:45:11.705Z,30.97
2017-10-16T23:47:39.321Z,29.10
2017-10-16T23:50:06.899Z,30.90
2017-10-16T23:52:34.497Z,32.03
2017-10-16T23:55:02.972Z,34.10
2017-10-16T23:57:30.526Z,30.57
2017-10-16T23:59:59.874Z,28.60
